Rms Queen Mary 2 — ZCEF6 — position and weather

sailwx.info

Track history (hours):
 
Tides and Currents Weather Stations Pressure Air Temp Water Temp Dewpoint Dewpoint Depression Visibility Wind Speed Wind Dir Waves Ship Positions

Rms Queen Mary 2

Last reported at 2017-Sep-19 00:00 UTC. Time now 2017-Sep-20 00:34 UTC.
Position N 47°12' W 039°18'.

Length 345 m; draft 10.4 m.

Type: Passenger vessel. MMSI: 310627000.

Wind from 330 at 33 knots

Barometer 1020.9 mb
Air temperature 15.0 ° C
Visibility: greater than 27.0 NM
Dewpoint 6.9 ° C
Water temperature 19.8 ° C

Date/timePositionNaut miles runAvg speedWind from/ knotsBaromVisibWave heightAir tempDewpointWater temp
2017-Sep-19 00:00N 47°12' W 039°18'25020.8 330 / 331020.927.0 15.0 6.919.8
2017-Sep-18 12:00N 48°30' W 033°24'8327.6 260 / 101018.327.0 15.0 8.015.0
2017-Sep-18 09:00N 48°54' W 031°24'20418.6 310 / 101017.810.8 16.0 8.115.4
2017-Sep-17 22:00N 49°36' W 026°18'27321.0 190 / 401014.327.0 17.015.316.1
2017-Sep-17 09:00N 50°12' W 019°18'23421.3 330 / 201013.727.0 15.013.215.9
2017-Sep-16 22:00N 50°12' W 013°12'33120.3 320 / 81017.327.0 14.5 9.715.4
2017-Sep-16 05:41N 49°50' W 004°38'320.6
2017-Sep-16 05:30N 49°51' W 004°33'1120.4
2017-Sep-16 04:59N 49°51' W 004°16'1020.6
2017-Sep-16 04:30N 49°53' W 004°01'1020.7
2017-Sep-16 04:00N 49°54' W 003°45'1020.4
2017-Sep-16 03:30N 49°56' W 003°30'1020.3
2017-Sep-16 03:00N 49°57' W 003°14'1020.2
2017-Sep-16 02:30N 49°58' W 002°59'1020.4
2017-Sep-16 02:00N 50°01' W 002°43'5019.6
2017-Sep-15 23:28N 50°02' W 001°26'920.3
2017-Sep-15 23:00N 49°57' W 001°13'1121.2
2017-Sep-15 22:30N 49°52' W 000°59'1121.3
2017-Sep-15 22:01N 49°47' W 000°45'2920.0
2017-Sep-15 20:33N 49°31' W 000°06'115.3
2017-Sep-15 20:30N 49°31' W 000°05'611.8
2017-Sep-15 20:00N 49°29' E 000°04'2 3.8
2017-Sep-15 19:30N 49°29' E 000°06'0 0.4
2017-Sep-15 18:59N 49°29' E 000°07'0 0.0
2017-Sep-15 18:29N 49°29' E 000°07'0 0.0
2017-Sep-15 17:59N 49°29' E 000°07'0 0.0
2017-Sep-15 17:29N 49°29' E 000°07'0 0.0
2017-Sep-15 16:59N 49°29' E 000°07'0 0.0
2017-Sep-15 16:29N 49°29' E 000°07'0 0.0
2017-Sep-15 15:59N 49°29' E 000°07'0 0.0
2017-Sep-15 15:29N 49°29' E 000°07'0 0.0
2017-Sep-15 14:59N 49°29' E 000°07'0 0.0
2017-Sep-15 14:29N 49°29' E 000°07'0 0.0
2017-Sep-15 13:59N 49°29' E 000°07'0 0.0
2017-Sep-15 13:29N 49°29' E 000°07'0 0.0
2017-Sep-15 12:59N 49°29' E 000°07'0 0.0
2017-Sep-15 12:29N 49°29' E 000°07'0 0.0
2017-Sep-15 11:59N 49°29' E 000°07'0 0.0
2017-Sep-15 11:29N 49°29' E 000°07'0 0.0
2017-Sep-15 10:59N 49°29' E 000°07'0 0.0
2017-Sep-15 10:29N 49°29' E 000°07'0 0.0
2017-Sep-15 09:59N 49°29' E 000°07'0 0.0
2017-Sep-15 09:29N 49°29' E 000°07'0 0.0
2017-Sep-15 08:59N 49°29' E 000°07'0 0.0
2017-Sep-15 08:29N 49°29' E 000°07'0 0.0
2017-Sep-15 07:59N 49°29' E 000°07'0 0.0
2017-Sep-15 07:29N 49°29' E 000°07'0 0.0
2017-Sep-15 06:59N 49°29' E 000°07'0 0.0
2017-Sep-15 06:29N 49°29' E 000°07'0 0.0
2017-Sep-15 05:59N 49°29' E 000°07'0 0.0
2017-Sep-15 05:29N 49°29' E 000°07'1 1.3
2017-Sep-15 05:01N 49°29' E 000°06'4 7.7
2017-Sep-15 04:30N 49°30' E 000°00'5 9.2
2017-Sep-15 04:00N 49°32' W 000°07'510.8
2017-Sep-15 03:30N 49°34' W 000°14'612.2
2017-Sep-15 03:00N 49°37' W 000°22'2012.0
2017-Sep-15 01:20N 49°52' W 000°43'412.6
2017-Sep-15 01:00N 49°55' W 000°47'612.7
2017-Sep-15 00:30N 50°01' W 000°52'612.3
2017-Sep-15 00:00N 50°06' W 000°58'612.9
2017-Sep-14 23:30N 50°11' W 001°04'1512.8
2017-Sep-14 22:22N 50°23' W 001°16'510.7
2017-Sep-14 21:55N 50°28' W 001°15'613.8
2017-Sep-14 21:29N 50°31' W 001°07'712.9
2017-Sep-14 20:56N 50°35' W 000°59'511.8
2017-Sep-14 20:31N 50°40' W 000°56'611.6
2017-Sep-14 20:01N 50°44' W 001°03'816.8
2017-Sep-14 19:30N 50°46' W 001°16'4 8.3
2017-Sep-14 19:01N 50°50' W 001°19'4 8.2
2017-Sep-14 18:30N 50°53' W 001°24'1 0.2
2017-Sep-14 15:11N 50°53' W 001°24'0 0.0
2017-Sep-14 14:59N 50°53' W 001°24'0 0.0
2017-Sep-14 14:29N 50°53' W 001°24'0 0.0
2017-Sep-14 13:53N 50°53' W 001°24'0 0.0
2017-Sep-14 13:26N 50°53' W 001°24'0 0.0
2017-Sep-14 12:53N 50°53' W 001°24'0 0.0
2017-Sep-14 12:29N 50°53' W 001°24'0 0.0
2017-Sep-14 11:53N 50°53' W 001°24'0 0.0
2017-Sep-14 11:26N 50°53' W 001°24'0 0.0
2017-Sep-14 10:41N 50°53' W 001°24'0 0.0
2017-Sep-14 10:17N 50°53' W 001°24'0 0.0
2017-Sep-14 09:59N 50°53' W 001°24'0 0.0
2017-Sep-14 09:23N 50°53' W 001°24'0 0.0
2017-Sep-14 08:53N 50°53' W 001°24'0 0.0
2017-Sep-14 08:29N 50°53' W 001°24'0 0.0
2017-Sep-14 07:59N 50°53' W 001°24'0 0.0
2017-Sep-14 07:29N 50°53' W 001°24'0 0.0
2017-Sep-14 06:56N 50°53' W 001°24'0 0.0
2017-Sep-14 06:23N 50°53' W 001°24'0 0.0
2017-Sep-14 05:44N 50°53' W 001°24'0 0.0
2017-Sep-14 05:30N 50°53' W 001°24'0 0.4
2017-Sep-14 05:00N 50°53' W 001°24'3 6.8
2017-Sep-14 04:30N 50°51' W 001°20'4 7.9
2017-Sep-14 04:01N 50°47' W 001°19'714.0
2017-Sep-14 03:31N 50°46' W 001°08'816.4
2017-Sep-14 03:00N 50°42' W 000°57'511.0
2017-Sep-14 02:30N 50°36' W 000°58'713.6
2017-Sep-14 02:01N 50°32' W 001°06'816.1
2017-Sep-14 01:30N 50°29' W 001°18'1812.3
2017-Sep-14 00:00N 50°18' W 001°42'3139.2 290 / 35998.010.8 14.5 9.215.1
2017-Sep-13 23:12N 50°13' W 002°30'420.3
2017-Sep-13 23:00N 50°12' W 002°36'1020.2
2017-Sep-13 22:31N 50°09' W 002°51'1020.2
2017-Sep-13 22:01N 50°06' W 003°06'1020.8
2017-Sep-13 21:31N 50°02' W 003°21'1020.9
2017-Sep-13 21:01N 49°59' W 003°37'1121.3
2017-Sep-13 20:31N 49°56' W 003°52'1121.2
2017-Sep-13 20:00N 49°52' W 004°08'1221.1
2017-Sep-13 19:28N 49°50' W 004°25'918.8
2017-Sep-13 19:00N 49°48' W 004°38'38121.2
2017-Sep-13 01:00N 50°06' W 014°30'49021.3 260 / 221007.510.8 16.512.014.8
2017-Sep-12 02:00N 49°54' W 027°12'98421.4 270 / 231007.6 5.4 17.016.214.4
2017-Sep-10 04:00N 45°24' W 050°36'19819.8 160 / 251022.3 5.4 17.516.719.7
2017-Sep-09 18:00N 44°00' W 054°48'25122.8 160 / 261020.810.8 20.020.017.7
2017-Sep-09 07:00N 42°24' W 060°06'   050 / 91020.010.8 19.013.822.0
Track history (hours):
 
Tides and Currents Weather Stations Pressure Air Temp Water Temp Dewpoint Dewpoint Depression Visibility Wind Speed Wind Dir Waves Ship Positions

Rms Queen Mary 2

Last reported at 2017-Sep-19 00:00 UTC. Time now 2017-Sep-20 00:34 UTC.
Position N 47°12' W 039°18'.

Length 345 m; draft 10.4 m.

Type: Passenger vessel. MMSI: 310627000.

Wind from 330 at 33 knots

Barometer 1020.9 mb
Air temperature 15.0 ° C
Visibility: greater than 27.0 NM
Dewpoint 6.9 ° C
Water temperature 19.8 ° C

Date/timePositionNaut miles runAvg speedWind from/ knotsBaromVisibWave heightAir tempDewpointWater temp
2017-Sep-19 00:00N 47°12' W 039°18'25020.8 330 / 331020.927.0 15.0 6.919.8
2017-Sep-18 12:00N 48°30' W 033°24'8327.6 260 / 101018.327.0 15.0 8.015.0
2017-Sep-18 09:00N 48°54' W 031°24'20418.6 310 / 101017.810.8 16.0 8.115.4
2017-Sep-17 22:00N 49°36' W 026°18'27321.0 190 / 401014.327.0 17.015.316.1
2017-Sep-17 09:00N 50°12' W 019°18'23421.3 330 / 201013.727.0 15.013.215.9
2017-Sep-16 22:00N 50°12' W 013°12'33120.3 320 / 81017.327.0 14.5 9.715.4
2017-Sep-16 05:41N 49°50' W 004°38'320.6
2017-Sep-16 05:30N 49°51' W 004°33'1120.4
2017-Sep-16 04:59N 49°51' W 004°16'1020.6
2017-Sep-16 04:30N 49°53' W 004°01'1020.7
2017-Sep-16 04:00N 49°54' W 003°45'1020.4
2017-Sep-16 03:30N 49°56' W 003°30'1020.3
2017-Sep-16 03:00N 49°57' W 003°14'1020.2
2017-Sep-16 02:30N 49°58' W 002°59'1020.4
2017-Sep-16 02:00N 50°01' W 002°43'5019.6
2017-Sep-15 23:28N 50°02' W 001°26'920.3
2017-Sep-15 23:00N 49°57' W 001°13'1121.2
2017-Sep-15 22:30N 49°52' W 000°59'1121.3
2017-Sep-15 22:01N 49°47' W 000°45'2920.0
2017-Sep-15 20:33N 49°31' W 000°06'115.3
2017-Sep-15 20:30N 49°31' W 000°05'611.8
2017-Sep-15 20:00N 49°29' E 000°04'2 3.8
2017-Sep-15 19:30N 49°29' E 000°06'0 0.4
2017-Sep-15 18:59N 49°29' E 000°07'0 0.0
2017-Sep-15 18:29N 49°29' E 000°07'0 0.0
2017-Sep-15 17:59N 49°29' E 000°07'0 0.0
2017-Sep-15 17:29N 49°29' E 000°07'0 0.0
2017-Sep-15 16:59N 49°29' E 000°07'0 0.0
2017-Sep-15 16:29N 49°29' E 000°07'0 0.0
2017-Sep-15 15:59N 49°29' E 000°07'0 0.0
2017-Sep-15 15:29N 49°29' E 000°07'0 0.0
2017-Sep-15 14:59N 49°29' E 000°07'0 0.0
2017-Sep-15 14:29N 49°29' E 000°07'0 0.0
2017-Sep-15 13:59N 49°29' E 000°07'0 0.0
2017-Sep-15 13:29N 49°29' E 000°07'0 0.0
2017-Sep-15 12:59N 49°29' E 000°07'0 0.0
2017-Sep-15 12:29N 49°29' E 000°07'0 0.0
2017-Sep-15 11:59N 49°29' E 000°07'0 0.0
2017-Sep-15 11:29N 49°29' E 000°07'0 0.0
2017-Sep-15 10:59N 49°29' E 000°07'0 0.0
2017-Sep-15 10:29N 49°29' E 000°07'0 0.0
2017-Sep-15 09:59N 49°29' E 000°07'0 0.0
2017-Sep-15 09:29N 49°29' E 000°07'0 0.0
2017-Sep-15 08:59N 49°29' E 000°07'0 0.0
2017-Sep-15 08:29N 49°29' E 000°07'0 0.0
2017-Sep-15 07:59N 49°29' E 000°07'0 0.0
2017-Sep-15 07:29N 49°29' E 000°07'0 0.0
2017-Sep-15 06:59N 49°29' E 000°07'0 0.0
2017-Sep-15 06:29N 49°29' E 000°07'0 0.0
2017-Sep-15 05:59N 49°29' E 000°07'0 0.0
2017-Sep-15 05:29N 49°29' E 000°07'1 1.3
2017-Sep-15 05:01N 49°29' E 000°06'4 7.7
2017-Sep-15 04:30N 49°30' E 000°00'5 9.2
2017-Sep-15 04:00N 49°32' W 000°07'510.8
2017-Sep-15 03:30N 49°34' W 000°14'612.2
2017-Sep-15 03:00N 49°37' W 000°22'2012.0
2017-Sep-15 01:20N 49°52' W 000°43'412.6
2017-Sep-15 01:00N 49°55' W 000°47'612.7
2017-Sep-15 00:30N 50°01' W 000°52'612.3
2017-Sep-15 00:00N 50°06' W 000°58'612.9
2017-Sep-14 23:30N 50°11' W 001°04'1512.8
2017-Sep-14 22:22N 50°23' W 001°16'510.7
2017-Sep-14 21:55N 50°28' W 001°15'613.8
2017-Sep-14 21:29N 50°31' W 001°07'712.9
2017-Sep-14 20:56N 50°35' W 000°59'511.8
2017-Sep-14 20:31N 50°40' W 000°56'611.6
2017-Sep-14 20:01N 50°44' W 001°03'816.8
2017-Sep-14 19:30N 50°46' W 001°16'4 8.3
2017-Sep-14 19:01N 50°50' W 001°19'4 8.2
2017-Sep-14 18:30N 50°53' W 001°24'1 0.2
2017-Sep-14 15:11N 50°53' W 001°24'0 0.0
2017-Sep-14 14:59N 50°53' W 001°24'0 0.0
2017-Sep-14 14:29N 50°53' W 001°24'0 0.0
2017-Sep-14 13:53N 50°53' W 001°24'0 0.0
2017-Sep-14 13:26N 50°53' W 001°24'0 0.0
2017-Sep-14 12:53N 50°53' W 001°24'0 0.0
2017-Sep-14 12:29N 50°53' W 001°24'0 0.0
2017-Sep-14 11:53N 50°53' W 001°24'0 0.0
2017-Sep-14 11:26N 50°53' W 001°24'0 0.0
2017-Sep-14 10:41N 50°53' W 001°24'0 0.0
2017-Sep-14 10:17N 50°53' W 001°24'0 0.0
2017-Sep-14 09:59N 50°53' W 001°24'0 0.0
2017-Sep-14 09:23N 50°53' W 001°24'0 0.0
2017-Sep-14 08:53N 50°53' W 001°24'0 0.0
2017-Sep-14 08:29N 50°53' W 001°24'0 0.0
2017-Sep-14 07:59N 50°53' W 001°24'0 0.0
2017-Sep-14 07:29N 50°53' W 001°24'0 0.0
2017-Sep-14 06:56N 50°53' W 001°24'0 0.0
2017-Sep-14 06:23N 50°53' W 001°24'0 0.0
2017-Sep-14 05:44N 50°53' W 001°24'0 0.0
2017-Sep-14 05:30N 50°53' W 001°24'0 0.4
2017-Sep-14 05:00N 50°53' W 001°24'3 6.8
2017-Sep-14 04:30N 50°51' W 001°20'4 7.9
2017-Sep-14 04:01N 50°47' W 001°19'714.0
2017-Sep-14 03:31N 50°46' W 001°08'816.4
2017-Sep-14 03:00N 50°42' W 000°57'511.0
2017-Sep-14 02:30N 50°36' W 000°58'713.6
2017-Sep-14 02:01N 50°32' W 001°06'816.1
2017-Sep-14 01:30N 50°29' W 001°18'1812.3
2017-Sep-14 00:00N 50°18' W 001°42'3139.2 290 / 35998.010.8 14.5 9.215.1
2017-Sep-13 23:12N 50°13' W 002°30'420.3
2017-Sep-13 23:00N 50°12' W 002°36'1020.2
2017-Sep-13 22:31N 50°09' W 002°51'1020.2
2017-Sep-13 22:01N 50°06' W 003°06'1020.8
2017-Sep-13 21:31N 50°02' W 003°21'1020.9
2017-Sep-13 21:01N 49°59' W 003°37'1121.3
2017-Sep-13 20:31N 49°56' W 003°52'1121.2
2017-Sep-13 20:00N 49°52' W 004°08'1221.1
2017-Sep-13 19:28N 49°50' W 004°25'918.8
2017-Sep-13 19:00N 49°48' W 004°38'38121.2
2017-Sep-13 01:00N 50°06' W 014°30'49021.3 260 / 221007.510.8 16.512.014.8
2017-Sep-12 02:00N 49°54' W 027°12'98421.4 270 / 231007.6 5.4 17.016.214.4
2017-Sep-10 04:00N 45°24' W 050°36'19819.8 160 / 251022.3 5.4 17.516.719.7
2017-Sep-09 18:00N 44°00' W 054°48'25122.8 160 / 261020.810.8 20.020.017.7
2017-Sep-09 07:00N 42°24' W 060°06'   050 / 91020.010.8 19.013.822.0

Dump ship's entire track history